createdAt,value
2023-04-22T00:00:43.868Z,10.89
2023-04-22T00:03:18.056Z,10.85
2023-04-22T00:06:02.168Z,10.82
2023-04-22T00:08:30.222Z,10.79
2023-04-22T00:11:14.379Z,10.75
2023-04-22T00:13:38.531Z,10.71
2023-04-22T00:16:12.457Z,10.66
2023-04-22T00:18:53.104Z,10.63
2023-04-22T00:21:19.899Z,10.60
2023-04-22T00:24:03.055Z,10.56
2023-04-22T00:26:38.006Z,10.53
2023-04-22T00:29:22.456Z,10.49
2023-04-22T00:32:06.706Z,10.46
2023-04-22T00:34:43.241Z,10.43
2023-04-22T00:37:18.027Z,10.38
2023-04-22T00:40:03.291Z,10.36
2023-04-22T00:42:49.176Z,10.32
2023-04-22T00:45:17.527Z,10.28
2023-04-22T00:47:42.184Z,10.25
2023-04-22T00:50:08.248Z,10.22
2023-04-22T00:52:39.687Z,10.20
2023-04-22T00:55:03.802Z,10.16
2023-04-22T00:57:29.718Z,10.14
2023-04-22T01:00:04.639Z,10.12
2023-04-22T01:02:37.430Z,10.07
2023-04-22T01:05:12.955Z,10.02
2023-04-22T01:07:55.221Z,9.97
2023-04-22T01:10:39.324Z,9.93
2023-04-22T01:13:05.973Z,9.91
2023-04-22T01:15:50.713Z,9.90
2023-04-22T01:18:14.973Z,9.88
2023-04-22T01:20:59.194Z,9.85
2023-04-22T01:23:23.191Z,9.83
2023-04-22T01:25:47.536Z,9.81
2023-04-22T01:28:11.925Z,9.78
2023-04-22T01:30:43.302Z,9.75
2023-04-22T01:33:20.112Z,9.72
2023-04-22T01:36:00.419Z,9.68
2023-04-22T01:38:44.796Z,9.63
2023-04-22T01:41:15.687Z,9.60
2023-04-22T01:43:42.734Z,9.58
2023-04-22T01:46:26.713Z,9.53
2023-04-22T01:49:02.806Z,9.50
2023-04-22T01:51:30.703Z,9.46
2023-04-22T01:53:58.996Z,9.44
2023-04-22T01:56:22.659Z,9.42
2023-04-22T01:58:49.954Z,9.40
2023-04-22T02:01:13.730Z,9.36
2023-04-22T02:03:48.308Z,9.34
2023-04-22T02:06:31.930Z,9.31
2023-04-22T02:09:05.941Z,9.29
2023-04-22T02:11:29.418Z,9.28
2023-04-22T02:14:13.265Z,9.25
2023-04-22T02:16:36.790Z,9.22
2023-04-22T02:19:20.906Z,9.17
2023-04-22T02:22:05.189Z,9.15
2023-04-22T02:24:49.694Z,9.13
2023-04-22T02:27:23.245Z,9.10
2023-04-22T02:30:09.804Z,9.06
2023-04-22T02:32:38.418Z,9.03
2023-04-22T02:35:15.730Z,9.01
2023-04-22T02:37:59.408Z,8.99
2023-04-22T02:40:43.564Z,8.97
2023-04-22T02:43:27.593Z,8.95
2023-04-22T02:45:54.398Z,8.92
2023-04-22T02:48:29.213Z,8.90
2023-04-22T02:51:05.933Z,8.87
2023-04-22T02:53:29.350Z,8.84
2023-04-22T02:56:01.727Z,8.83
2023-04-22T02:58:45.829Z,8.81
2023-04-22T03:01:29.603Z,8.79
2023-04-22T03:04:05.701Z,8.77
2023-04-22T03:06:32.380Z,8.74
2023-04-22T03:09:00.436Z,8.71
2023-04-22T03:11:24.253Z,8.71
2023-04-22T03:14:07.842Z,8.69
2023-04-22T03:16:33.262Z,8.67
2023-04-22T03:19:17.195Z,8.66
2023-04-22T03:21:53.808Z,8.64
2023-04-22T03:24:37.931Z,8.63
2023-04-22T03:27:21.976Z,8.62
2023-04-22T03:30:08.328Z,8.62
2023-04-22T03:32:43.640Z,8.61
2023-04-22T03:35:17.002Z,8.61
2023-04-22T03:37:52.247Z,8.61
2023-04-22T03:40:21.019Z,8.60
2023-04-22T03:42:57.249Z,8.59
2023-04-22T03:45:23.886Z,8.58
2023-04-22T03:48:08.206Z,8.58
2023-04-22T03:50:35.710Z,8.58
2023-04-22T03:52:59.184Z,8.60
2023-04-22T03:55:29.662Z,8.61
2023-04-22T03:57:53.067Z,8.63
2023-04-22T04:00:19.860Z,8.66
2023-04-22T04:02:45.788Z,8.69
2023-04-22T04:05:10.975Z,8.71
2023-04-22T04:07:56.087Z,8.75
2023-04-22T04:10:40.703Z,8.79
2023-04-22T04:13:23.792Z,8.85
2023-04-22T04:16:08.229Z,8.91
2023-04-22T04:18:42.042Z,8.95
2023-04-22T04:21:26.341Z,9.01
2023-04-22T04:24:10.488Z,9.08
2023-04-22T04:26:54.666Z,9.18
2023-04-22T04:29:39.433Z,9.29
2023-04-22T04:32:24.544Z,9.45
2023-04-22T04:34:59.513Z,9.85
2023-04-22T04:37:36.537Z,11.35
2023-04-22T04:40:04.546Z,13.16
2023-04-22T04:42:38.969Z,15.04
2023-04-22T04:45:06.261Z,16.73
2023-04-22T04:47:33.423Z,18.26
2023-04-22T04:50:04.752Z,19.79
2023-04-22T04:52:28.393Z,21.11
2023-04-22T04:54:51.855Z,22.28
2023-04-22T04:57:15.635Z,23.39
2023-04-22T04:59:39.789Z,24.58
2023-04-22T05:02:03.759Z,25.68
2023-04-22T05:04:27.663Z,26.66
2023-04-22T05:06:51.749Z,27.52
2023-04-22T05:09:15.425Z,28.31
2023-04-22T05:11:39.502Z,29.17
2023-04-22T05:14:08.554Z,29.82
2023-04-22T05:16:34.979Z,30.53
2023-04-22T05:18:58.601Z,31.46
2023-04-22T05:21:22.256Z,32.04
2023-04-22T05:23:45.736Z,32.50
2023-04-22T05:26:10.399Z,32.79
2023-04-22T05:28:35.404Z,33.11
2023-04-22T05:30:58.815Z,33.39
2023-04-22T05:33:25.145Z,33.78
2023-04-22T05:35:50.828Z,34.37
2023-04-22T05:38:13.448Z,35.16
2023-04-22T05:40:37.337Z,35.87
2023-04-22T05:43:01.767Z,36.43
2023-04-22T05:45:25.473Z,36.93
2023-04-22T05:47:49.314Z,37.39
2023-04-22T05:50:13.999Z,37.56
2023-04-22T05:52:44.775Z,37.96
2023-04-22T05:55:10.954Z,38.64
2023-04-22T05:57:34.836Z,39.15
2023-04-22T05:59:59.628Z,39.45
2023-04-22T06:02:23.440Z,39.64
2023-04-22T06:04:47.360Z,39.99
2023-04-22T06:07:11.146Z,40.30
2023-04-22T06:09:36.199Z,40.53
2023-04-22T06:12:01.357Z,40.66
2023-04-22T06:14:24.845Z,40.96
2023-04-22T06:16:50.213Z,41.27
2023-04-22T06:19:13.684Z,41.36
2023-04-22T06:21:39.514Z,41.34
2023-04-22T06:24:04.736Z,41.50
2023-04-22T06:26:28.498Z,41.74
2023-04-22T06:28:52.792Z,41.69
2023-04-22T06:31:18.830Z,41.62
2023-04-22T06:33:43.590Z,41.70
2023-04-22T06:36:08.095Z,42.07
2023-04-22T06:38:32.432Z,42.25
2023-04-22T06:41:13.486Z,42.43
2023-04-22T06:43:40.102Z,42.50
2023-04-22T06:46:06.606Z,42.64
2023-04-22T06:49:01.144Z,42.81
2023-04-22T06:51:46.991Z,43.16
2023-04-22T06:54:12.980Z,43.23
2023-04-22T06:56:36.495Z,43.29
2023-04-22T06:59:00.023Z,43.37
2023-04-22T07:01:23.749Z,43.40
2023-04-22T07:03:47.831Z,43.51
2023-04-22T07:06:11.692Z,43.68
2023-04-22T07:08:35.889Z,43.66
2023-04-22T07:10:59.481Z,43.56
2023-04-22T07:13:33.762Z,43.48
2023-04-22T07:15:57.614Z,43.31
2023-04-22T07:18:21.115Z,43.26
2023-04-22T07:20:44.577Z,43.24
2023-04-22T07:23:08.553Z,43.18
2023-04-22T07:25:32.013Z,43.08
2023-04-22T07:27:55.400Z,43.03
2023-04-22T07:30:19.089Z,42.93
2023-04-22T07:32:42.610Z,42.87
2023-04-22T07:35:08.055Z,42.77
2023-04-22T07:37:31.582Z,42.58
2023-04-22T07:39:55.079Z,42.42
2023-04-22T07:42:18.484Z,42.40
2023-04-22T07:44:41.942Z,42.38
2023-04-22T07:47:07.219Z,42.26
2023-04-22T07:49:30.576Z,42.07
2023-04-22T07:51:54.313Z,41.97
2023-04-22T07:54:17.725Z,41.97
2023-04-22T07:56:41.198Z,41.61
2023-04-22T07:59:05.564Z,41.31
2023-04-22T08:01:28.937Z,41.13
2023-04-22T08:03:52.698Z,41.01
2023-04-22T08:06:16.244Z,40.87
2023-04-22T08:08:39.957Z,40.66
2023-04-22T08:11:03.558Z,40.68
2023-04-22T08:13:27.025Z,40.64
2023-04-22T08:15:50.515Z,40.70
2023-04-22T08:18:13.831Z,40.75
2023-04-22T08:20:37.526Z,40.93
2023-04-22T08:23:00.988Z,41.04
2023-04-22T08:25:24.538Z,41.11
2023-04-22T08:27:49.489Z,41.28
2023-04-22T08:30:12.647Z,41.29
2023-04-22T08:32:37.578Z,41.25
2023-04-22T08:35:04.988Z,41.19
2023-04-22T08:37:30.411Z,41.00
2023-04-22T08:39:53.261Z,41.00
2023-04-22T08:42:16.796Z,40.92
2023-04-22T08:44:41.171Z,40.87
2023-04-22T08:47:08.085Z,40.86
2023-04-22T08:49:31.916Z,40.67
2023-04-22T08:51:56.313Z,40.48
2023-04-22T08:54:19.741Z,40.22
2023-04-22T08:56:45.153Z,39.93
2023-04-22T08:59:11.080Z,39.66
2023-04-22T09:01:35.431Z,39.60
2023-04-22T09:04:00.730Z,39.76
2023-04-22T09:06:24.488Z,39.86
2023-04-22T09:08:49.465Z,39.92
2023-04-22T09:11:12.653Z,39.71
2023-04-22T09:13:36.111Z,39.65
2023-04-22T09:16:00.097Z,39.68
2023-04-22T09:18:23.752Z,39.69
2023-04-22T09:20:49.030Z,39.62
2023-04-22T09:23:13.099Z,39.60
2023-04-22T09:25:37.924Z,39.48
2023-04-22T09:28:01.457Z,39.57
2023-04-22T09:30:26.798Z,39.74
2023-04-22T09:32:55.960Z,39.86
2023-04-22T09:35:26.738Z,39.78
2023-04-22T09:37:52.575Z,39.62
2023-04-22T09:40:18.307Z,39.45
2023-04-22T09:42:50.424Z,39.25
2023-04-22T09:45:13.931Z,38.94
2023-04-22T09:47:37.705Z,38.75
2023-04-22T09:50:05.288Z,38.47
2023-04-22T09:52:28.627Z,38.11
2023-04-22T09:54:52.716Z,37.91
2023-04-22T09:57:16.544Z,37.84
2023-04-22T09:59:40.147Z,37.82
2023-04-22T10:02:04.128Z,37.65
2023-04-22T10:04:29.339Z,37.43
2023-04-22T10:06:53.843Z,37.27
2023-04-22T10:09:19.453Z,37.09
2023-04-22T10:11:42.895Z,36.89
2023-04-22T10:14:09.556Z,36.82
2023-04-22T10:16:35.420Z,36.59
2023-04-22T10:19:01.704Z,36.09
2023-04-22T10:21:26.920Z,35.87
2023-04-22T10:23:50.666Z,35.77
2023-04-22T10:26:34.086Z,35.62
2023-04-22T10:28:58.456Z,35.41
2023-04-22T10:31:23.028Z,34.94
2023-04-22T10:33:46.411Z,34.55
2023-04-22T10:36:15.378Z,34.35
2023-04-22T10:38:40.264Z,34.31
2023-04-22T10:41:04.553Z,34.30
2023-04-22T10:43:44.755Z,34.29
2023-04-22T10:46:28.366Z,34.16
2023-04-22T10:48:51.907Z,33.98
2023-04-22T10:51:38.992Z,33.80
2023-04-22T10:54:02.624Z,33.25
2023-04-22T10:56:26.147Z,32.57
2023-04-22T10:58:50.669Z,32.26
2023-04-22T11:01:15.997Z,31.99
2023-04-22T11:03:40.166Z,31.91
2023-04-22T11:06:18.211Z,31.56
2023-04-22T11:08:45.848Z,30.89
2023-04-22T11:11:10.881Z,30.04
2023-04-22T11:13:34.783Z,29.21
2023-04-22T11:15:58.198Z,28.54
2023-04-22T11:18:23.585Z,28.23
2023-04-22T11:20:49.273Z,28.23
2023-04-22T11:23:16.646Z,28.23
2023-04-22T11:25:40.140Z,28.29
2023-04-22T11:28:04.051Z,28.42
2023-04-22T11:30:30.924Z,28.55
2023-04-22T11:32:56.364Z,28.66
2023-04-22T11:35:22.501Z,28.74
2023-04-22T11:37:46.210Z,28.75
2023-04-22T11:42:38.590Z,28.82
2023-04-22T11:45:02.127Z,28.71
2023-04-22T11:47:28.663Z,28.60
2023-04-22T11:49:59.537Z,28.61
2023-04-22T11:52:22.930Z,28.62
2023-04-22T11:54:46.355Z,28.62
2023-04-22T11:57:11.149Z,28.67
2023-04-22T11:59:35.291Z,28.64
2023-04-22T12:01:58.732Z,28.57
2023-04-22T12:04:23.134Z,28.19
2023-04-22T12:06:47.659Z,28.04
2023-04-22T12:09:13.366Z,27.91
2023-04-22T12:11:39.270Z,27.91
2023-04-22T12:14:06.914Z,27.97
2023-04-22T12:16:40.110Z,28.02
2023-04-22T12:19:04.059Z,28.09
2023-04-22T12:21:31.582Z,28.20
2023-04-22T12:23:58.497Z,28.27
2023-04-22T12:26:26.169Z,28.33
2023-04-22T12:28:50.952Z,28.36
2023-04-22T12:31:15.173Z,28.20
2023-04-22T12:33:39.034Z,28.05
2023-04-22T12:36:03.439Z,28.11
2023-04-22T12:38:26.860Z,28.15
2023-04-22T12:40:50.786Z,28.07
2023-04-22T12:43:14.269Z,28.06
2023-04-22T12:45:37.860Z,28.13
2023-04-22T12:48:01.353Z,28.19
2023-04-22T12:50:25.222Z,28.23
2023-04-22T12:52:48.599Z,28.15
2023-04-22T12:55:11.961Z,28.04
2023-04-22T12:57:35.699Z,28.01
2023-04-22T12:59:59.518Z,28.06
2023-04-22T13:02:23.298Z,28.02
2023-04-22T13:04:46.763Z,27.77
2023-04-22T13:07:10.586Z,27.71
2023-04-22T13:09:34.417Z,27.74
2023-04-22T13:11:58.193Z,27.69
2023-04-22T13:14:22.004Z,27.57
2023-04-22T13:16:45.930Z,27.53
2023-04-22T13:19:09.509Z,27.57
2023-04-22T13:21:32.853Z,27.60
2023-04-22T13:23:56.382Z,27.56
2023-04-22T13:26:20.030Z,27.50
2023-04-22T13:28:43.975Z,27.36
2023-04-22T13:31:07.509Z,27.15
2023-04-22T13:33:31.181Z,26.95
2023-04-22T13:35:55.325Z,26.76
2023-04-22T13:38:18.849Z,26.69
2023-04-22T13:40:42.722Z,26.58
2023-04-22T13:43:08.293Z,26.48
2023-04-22T13:45:31.697Z,26.45
2023-04-22T13:47:55.586Z,26.40
2023-04-22T13:50:19.036Z,26.34
2023-04-22T13:52:42.453Z,26.28
2023-04-22T13:55:07.921Z,26.12
2023-04-22T13:57:31.386Z,25.90
2023-04-22T13:59:54.726Z,25.75
2023-04-22T14:02:18.487Z,25.67
2023-04-22T14:04:41.908Z,25.59
2023-04-22T14:07:05.475Z,25.34
2023-04-22T14:09:30.096Z,25.10
2023-04-22T14:11:53.546Z,25.03
2023-04-22T14:14:16.981Z,24.97
2023-04-22T14:16:40.869Z,24.89
2023-04-22T14:19:05.678Z,24.79
2023-04-22T14:21:29.598Z,24.66
2023-04-22T14:23:54.944Z,24.54
2023-04-22T14:26:18.523Z,24.44
2023-04-22T14:28:42.189Z,24.33
2023-04-22T14:31:06.196Z,24.22
2023-04-22T14:33:31.169Z,24.10
2023-04-22T14:35:55.006Z,23.96
2023-04-22T14:38:20.142Z,23.87
2023-04-22T14:40:43.898Z,23.82
2023-04-22T14:43:07.826Z,23.77
2023-04-22T14:45:32.526Z,23.71
2023-04-22T14:47:56.617Z,23.65
2023-04-22T14:50:20.510Z,23.58
2023-04-22T14:52:44.566Z,23.53
2023-04-22T14:55:22.051Z,23.46
2023-04-22T14:57:46.965Z,23.37
2023-04-22T15:00:12.389Z,23.32
2023-04-22T15:02:36.240Z,23.26
2023-04-22T15:05:00.207Z,23.16
2023-04-22T15:07:24.097Z,23.06
2023-04-22T15:09:48.070Z,23.00
2023-04-22T15:12:11.911Z,22.91
2023-04-22T15:14:36.413Z,22.79
2023-04-22T15:16:59.977Z,22.69
2023-04-22T15:19:24.861Z,22.63
2023-04-22T15:21:51.134Z,22.54
2023-04-22T15:24:14.708Z,22.39
2023-04-22T15:26:42.038Z,22.20
2023-04-22T15:29:06.066Z,22.06
2023-04-22T15:31:29.624Z,21.98
2023-04-22T15:33:54.053Z,21.93
2023-04-22T15:36:20.349Z,21.86
2023-04-22T15:38:42.942Z,21.80
2023-04-22T15:41:06.596Z,21.76
2023-04-22T15:43:30.475Z,21.76
2023-04-22T15:46:03.004Z,21.76
2023-04-22T15:48:27.255Z,21.76
2023-04-22T15:50:50.996Z,21.76
2023-04-22T15:53:17.540Z,21.71
2023-04-22T15:55:41.331Z,21.62
2023-04-22T15:58:14.326Z,21.54
2023-04-22T16:00:37.880Z,21.49
2023-04-22T16:03:02.253Z,21.41
2023-04-22T16:05:30.530Z,21.32
2023-04-22T16:07:56.667Z,21.26
2023-04-22T16:10:22.215Z,21.21
2023-04-22T16:12:45.798Z,21.16
2023-04-22T16:15:10.961Z,21.10
2023-04-22T16:17:37.922Z,21.06
2023-04-22T16:20:01.506Z,21.01
2023-04-22T16:22:25.126Z,20.96
2023-04-22T16:24:49.639Z,20.88
2023-04-22T16:27:15.951Z,20.78
2023-04-22T16:29:38.894Z,20.69
2023-04-22T16:32:04.235Z,20.60
2023-04-22T16:34:30.682Z,20.51
2023-04-22T16:36:54.230Z,20.43
2023-04-22T16:39:21.241Z,20.36
2023-04-22T16:41:44.971Z,20.30
2023-04-22T16:44:08.981Z,20.26
2023-04-22T16:46:32.443Z,20.20
2023-04-22T16:48:55.924Z,20.18
2023-04-22T16:51:19.348Z,20.14
2023-04-22T16:53:46.114Z,20.10
2023-04-22T16:56:10.120Z,20.05
2023-04-22T16:58:41.009Z,19.96
2023-04-22T17:01:04.826Z,19.90
2023-04-22T17:03:31.366Z,19.83
2023-04-22T17:05:55.320Z,19.78
2023-04-22T17:08:18.848Z,19.73
2023-04-22T17:10:44.616Z,19.67
2023-04-22T17:13:08.172Z,19.60
2023-04-22T17:15:39.244Z,19.54
2023-04-22T17:18:05.143Z,19.46
2023-04-22T17:20:29.225Z,19.40
2023-04-22T17:22:53.439Z,19.35
2023-04-22T17:25:17.397Z,19.28
2023-04-22T17:27:41.025Z,19.21
2023-04-22T17:30:06.934Z,19.15
2023-04-22T17:32:30.699Z,19.08
2023-04-22T17:34:54.369Z,19.00
2023-04-22T17:37:17.957Z,18.91
2023-04-22T17:39:43.710Z,18.85
2023-04-22T17:42:07.482Z,18.77
2023-04-22T17:44:31.063Z,18.69
2023-04-22T17:46:54.737Z,18.63
2023-04-22T17:49:18.224Z,18.57
2023-04-22T17:51:44.309Z,18.50
2023-04-22T17:54:09.746Z,18.44
2023-04-22T17:56:34.002Z,18.38
2023-04-22T17:58:58.705Z,18.30
2023-04-22T18:01:22.393Z,18.25
2023-04-22T18:03:46.091Z,18.19
2023-04-22T18:06:09.812Z,18.13
2023-04-22T18:08:35.079Z,18.06
2023-04-22T18:11:04.418Z,18.00
2023-04-22T18:13:28.454Z,17.95
2023-04-22T18:15:53.813Z,17.90
2023-04-22T18:18:18.468Z,17.85
2023-04-22T18:20:42.728Z,17.79
2023-04-22T18:23:10.402Z,17.74
2023-04-22T18:25:34.574Z,17.69
2023-04-22T18:28:19.096Z,17.62
2023-04-22T18:30:43.618Z,17.57
2023-04-22T18:33:07.707Z,17.50
2023-04-22T18:35:34.849Z,17.44
2023-04-22T18:38:01.496Z,17.36
2023-04-22T18:40:33.934Z,17.29
2023-04-22T18:43:00.760Z,17.22
2023-04-22T18:45:45.249Z,17.14
2023-04-22T18:48:08.921Z,17.08
2023-04-22T18:50:35.124Z,17.04
2023-04-22T18:52:58.832Z,16.99
2023-04-22T18:55:22.805Z,16.93
2023-04-22T18:57:46.365Z,16.86
2023-04-22T19:00:12.646Z,16.82
2023-04-22T19:02:39.812Z,16.78
2023-04-22T19:05:04.014Z,16.74
2023-04-22T19:07:27.805Z,16.69
2023-04-22T19:09:51.571Z,16.65
2023-04-22T19:12:18.473Z,16.61
2023-04-22T19:14:42.496Z,16.56
2023-04-22T19:17:06.884Z,16.51
2023-04-22T19:19:30.437Z,16.48
2023-04-22T19:21:54.214Z,16.45
2023-04-22T19:24:17.674Z,16.41
2023-04-22T19:26:54.889Z,16.36
2023-04-22T19:29:18.362Z,16.31
2023-04-22T19:31:42.919Z,16.28
2023-04-22T19:34:07.409Z,16.23
2023-04-22T19:36:36.183Z,16.19
2023-04-22T19:39:01.830Z,16.16
2023-04-22T19:41:25.751Z,16.12
2023-04-22T19:43:51.315Z,16.10
2023-04-22T19:46:23.386Z,16.06
2023-04-22T19:49:11.201Z,16.01
2023-04-22T19:51:35.366Z,15.98
2023-04-22T19:54:02.974Z,15.94
2023-04-22T19:56:31.554Z,15.91
2023-04-22T19:58:55.720Z,15.87
2023-04-22T20:01:21.913Z,15.81
2023-04-22T20:03:47.082Z,15.75
2023-04-22T20:06:22.558Z,15.66
2023-04-22T20:08:47.129Z,15.56
2023-04-22T20:11:13.298Z,15.44
2023-04-22T20:13:38.344Z,15.39
2023-04-22T20:16:03.420Z,15.32
2023-04-22T20:18:27.644Z,15.27
2023-04-22T20:20:56.835Z,15.24
2023-04-22T20:23:23.162Z,15.23
2023-04-22T20:26:09.514Z,15.23
2023-04-22T20:28:44.612Z,15.22
2023-04-22T20:31:08.862Z,15.21
2023-04-22T20:33:32.676Z,15.21
2023-04-22T20:36:19.254Z,15.21
2023-04-22T20:38:48.228Z,15.20
2023-04-22T20:41:13.133Z,15.20
2023-04-22T20:43:45.321Z,15.14
2023-04-22T20:46:19.734Z,15.05
2023-04-22T20:48:45.201Z,14.95
2023-04-22T20:51:16.449Z,14.84
2023-04-22T20:53:40.525Z,14.73
2023-04-22T20:56:08.390Z,14.65
2023-04-22T20:58:52.087Z,14.62
2023-04-22T21:01:36.605Z,14.63
2023-04-22T21:04:02.047Z,14.65
2023-04-22T21:06:49.474Z,14.67
2023-04-22T21:09:13.631Z,14.67
2023-04-22T21:11:38.818Z,14.68
2023-04-22T21:14:03.614Z,14.66
2023-04-22T21:16:31.903Z,14.65
2023-04-22T21:19:00.164Z,14.64
2023-04-22T21:21:46.554Z,14.63
2023-04-22T21:24:30.547Z,14.61
2023-04-22T21:27:17.819Z,14.57
2023-04-22T21:29:42.312Z,14.54
2023-04-22T21:32:09.177Z,14.50
2023-04-22T21:34:56.167Z,14.46
2023-04-22T21:37:19.687Z,14.43
2023-04-22T21:39:43.136Z,14.41
2023-04-22T21:42:07.306Z,14.38
2023-04-22T21:44:30.885Z,14.36
2023-04-22T21:47:05.950Z,14.34
2023-04-22T21:49:39.511Z,14.31
2023-04-22T21:52:23.309Z,14.28
2023-04-22T21:55:09.163Z,14.26
2023-04-22T21:57:35.517Z,14.22
2023-04-22T22:00:05.451Z,14.19
2023-04-22T22:02:29.424Z,14.15
2023-04-22T22:05:00.961Z,14.12
2023-04-22T22:07:27.513Z,14.09
2023-04-22T22:09:52.417Z,14.06
2023-04-22T22:12:36.358Z,14.02
2023-04-22T22:15:21.112Z,13.98
2023-04-22T22:17:50.104Z,13.96
2023-04-22T22:20:36.484Z,13.92
2023-04-22T22:22:59.980Z,13.90
2023-04-22T22:25:25.592Z,13.88
2023-04-22T22:27:52.764Z,13.87
2023-04-22T22:30:36.711Z,13.85
2023-04-22T22:33:19.912Z,13.83
2023-04-22T22:36:04.098Z,13.81
2023-04-22T22:38:48.060Z,13.80
2023-04-22T22:41:31.459Z,13.79
2023-04-22T22:44:05.972Z,13.78
2023-04-22T22:46:49.803Z,13.77
2023-04-22T22:49:13.831Z,13.77
2023-04-22T22:51:58.056Z,13.76
2023-04-22T22:54:42.612Z,13.74
2023-04-22T22:57:26.607Z,13.71
2023-04-22T23:00:14.136Z,13.70
2023-04-22T23:02:48.101Z,13.68
2023-04-22T23:05:21.237Z,13.65
2023-04-22T23:07:45.170Z,13.61
2023-04-22T23:10:17.519Z,13.57
2023-04-22T23:13:01.572Z,13.52
2023-04-22T23:15:46.037Z,13.46
2023-04-22T23:18:31.902Z,13.39
2023-04-22T23:21:02.084Z,13.33
2023-04-22T23:23:46.827Z,13.25
2023-04-22T23:26:31.871Z,13.18
2023-04-22T23:29:16.762Z,13.11
2023-04-22T23:31:43.973Z,13.03
2023-04-22T23:34:34.537Z,12.94
2023-04-22T23:37:03.690Z,12.87
2023-04-22T23:39:47.764Z,12.80
2023-04-22T23:42:31.804Z,12.73
2023-04-22T23:44:55.679Z,12.64
2023-04-22T23:47:39.712Z,12.59
2023-04-22T23:50:24.139Z,12.51
2023-04-22T23:53:08.051Z,12.46
2023-04-22T23:55:53.204Z,12.39
2023-04-22T23:58:38.594Z,12.32
